Time;durP1;ratioP1;P1;durP2;ratioP2;P2;SDS_P1;SDS_P2;PMS_P1;PMS_P2;Temp;Humidity;BMP_temperature;BMP_pressure;BME280_temperature;BME280_humidity;BME280_pressure;Samples;Min_cycle;Max_cycle;Signal;HPM_P1;HPM_P2
2023/03/09 00:00:53;;;;;;;22.30;13.80;;;1.80;99.90;;;;;;5043514;28;20119;-80
2023/03/09 00:03:19;;;;;;;21.60;13.83;;;1.80;99.90;;;;;;5047700;28;20024;-79
2023/03/09 00:06:11;;;;;;;23.20;13.73;;;1.70;99.90;;;;;;5062751;28;20123;-79
2023/03/09 00:08:37;;;;;;;22.02;13.63;;;1.70;99.90;;;;;;5050124;28;20052;-81
2023/03/09 00:11:05;;;;;;;23.93;14.03;;;1.70;99.90;;;;;;5034186;28;20063;-80
2023/03/09 00:13:31;;;;;;;20.77;13.40;;;1.70;99.90;;;;;;5053390;28;20048;-80
2023/03/09 00:15:56;;;;;;;20.33;13.10;;;1.70;99.90;;;;;;5043399;28;20079;-80
2023/03/09 00:18:23;;;;;;;18.53;12.10;;;1.70;99.90;;;;;;5047018;28;20044;-80
2023/03/09 00:20:49;;;;;;;21.23;13.53;;;1.70;99.90;;;;;;5039403;28;20427;-80
2023/03/09 00:23:18;;;;;;;18.60;12.30;;;1.70;99.90;;;;;;5067608;28;20074;-81
2023/03/09 00:25:44;;;;;;;18.67;12.43;;;1.70;99.90;;;;;;5032261;28;20040;-81
2023/03/09 00:28:10;;;;;;;19.00;13.20;;;1.70;99.90;;;;;;5068060;28;20076;-80
2023/03/09 00:30:36;;;;;;;20.87;12.50;;;1.60;99.90;;;;;;5034995;28;20036;-80
2023/03/09 00:33:02;;;;;;;20.23;12.77;;;1.60;99.90;;;;;;5065832;28;20059;-80
2023/03/09 00:35:27;;;;;;;21.33;13.17;;;1.50;99.90;;;;;;5027034;28;20041;-80
2023/03/09 00:37:53;;;;;;;23.93;13.60;;;1.50;99.90;;;;;;5058880;28;20036;-80
2023/03/09 00:40:19;;;;;;;23.03;13.97;;;1.50;99.90;;;;;;5070319;28;20082;-80
2023/03/09 00:42:45;;;;;;;25.67;14.57;;;1.50;99.90;;;;;;5064272;28;20052;-80
2023/03/09 00:45:12;;;;;;;25.00;14.53;;;1.40;99.90;;;;;;5082031;28;20087;-81
2023/03/09 00:47:39;;;;;;;23.93;14.00;;;1.40;99.90;;;;;;5049178;28;20102;-79
2023/03/09 00:50:06;;;;;;;23.67;14.87;;;1.40;99.90;;;;;;5051186;28;20051;-81
2023/03/09 00:52:32;;;;;;;23.47;14.57;;;1.40;99.90;;;;;;5047932;28;20392;-80
2023/03/09 00:54:58;;;;;;;23.07;14.87;;;1.40;99.90;;;;;;5024876;28;20047;-80
2023/03/09 00:57:24;;;;;;;24.83;13.83;;;1.40;99.90;;;;;;5051961;28;20029;-80
2023/03/09 00:59:51;;;;;;;22.27;14.30;;;1.40;99.90;;;;;;5044867;28;20086;-81
2023/03/09 01:02:19;;;;;;;23.50;13.80;;;1.40;99.90;;;;;;5067475;28;20072;-80
2023/03/09 01:04:46;;;;;;;20.90;13.50;;;1.40;99.90;;;;;;5064097;28;20048;-81
2023/03/09 01:07:12;;;;;;;20.43;13.23;;;1.40;99.90;;;;;;5062066;28;20048;-81
2023/03/09 01:09:38;;;;;;;20.60;13.20;;;1.40;99.90;;;;;;5028983;28;20518;-80
2023/03/09 01:12:04;;;;;;;21.87;13.07;;;1.40;99.90;;;;;;5052421;28;20052;-80
2023/03/09 01:14:30;;;;;;;20.00;12.33;;;1.40;99.90;;;;;;5068325;28;20049;-82
2023/03/09 01:16:56;;;;;;;20.03;12.20;;;1.40;99.90;;;;;;5047483;28;20058;-81
2023/03/09 01:19:22;;;;;;;20.53;12.67;;;1.40;99.90;;;;;;5047943;28;20488;-80
2023/03/09 01:21:47;;;;;;;21.17;12.63;;;1.30;99.90;;;;;;5046225;28;20029;-80
2023/03/09 01:24:13;;;;;;;18.97;12.37;;;1.30;99.90;;;;;;5063791;28;20064;-80
2023/03/09 01:26:39;;;;;;;21.07;12.93;;;1.30;99.90;;;;;;5061984;28;20040;-82
2023/03/09 01:29:05;;;;;;;21.10;12.73;;;1.30;99.90;;;;;;5051720;28;20051;-80
2023/03/09 01:31:31;;;;;;;22.13;13.23;;;1.30;99.90;;;;;;5061326;28;20128;-80
2023/03/09 01:33:56;;;;;;;21.40;13.20;;;1.30;99.90;;;;;;5044538;28;20066;-81
2023/03/09 01:36:22;;;;;;;20.30;13.53;;;1.30;99.90;;;;;;5064688;28;20418;-81
2023/03/09 01:38:48;;;;;;;20.87;12.97;;;1.30;99.90;;;;;;5044714;28;20460;-81
2023/03/09 01:41:16;;;;;;;21.47;13.93;;;1.30;99.90;;;;;;5060106;28;20056;-81
2023/03/09 01:43:45;;;;;;;20.13;13.27;;;1.30;99.90;;;;;;5062150;28;20447;-80
2023/03/09 01:46:20;;;;;;;21.33;12.77;;;1.30;99.90;;;;;;5050737;28;20060;-81
2023/03/09 01:49:08;;;;;;;19.53;12.80;;;1.30;99.90;;;;;;5064065;28;20433;-80
2023/03/09 01:51:40;;;;;;;21.13;12.43;;;1.30;99.90;;;;;;5043370;28;20464;-81
2023/03/09 01:54:10;;;;;;;17.95;11.60;;;1.30;99.90;;;;;;5041001;28;20076;-80
2023/03/09 01:56:36;;;;;;;19.70;12.53;;;1.30;99.90;;;;;;5037252;28;20804;-80
2023/03/09 01:59:04;;;;;;;22.37;12.67;;;1.30;99.90;;;;;;5063012;28;20041;-80
2023/03/09 02:01:29;;;;;;;19.37;12.37;;;1.30;99.90;;;;;;5030494;28;20582;-81
2023/03/09 02:04:03;;;;;;;20.33;12.67;;;1.20;99.90;;;;;;5028544;28;20041;-81
2023/03/09 02:06:30;;;;;;;18.70;11.43;;;1.30;99.90;;;;;;5062578;28;20847;-80
2023/03/09 02:09:15;;;;;;;17.90;11.67;;;1.20;99.90;;;;;;5062391;28;20041;-80
2023/03/09 02:11:41;;;;;;;19.20;11.93;;;1.20;99.90;;;;;;5050708;28;20543;-80
2023/03/09 02:14:08;;;;;;;16.23;10.67;;;1.20;99.90;;;;;;5064994;28;20545;-81
2023/03/09 02:16:34;;;;;;;18.60;11.73;;;1.20;99.90;;;;;;5045656;28;20484;-81
2023/03/09 02:19:00;;;;;;;18.70;11.50;;;1.20;99.90;;;;;;5032412;28;20039;-81
2023/03/09 02:21:26;;;;;;;22.23;12.27;;;1.20;99.90;;;;;;5015741;28;20365;-80
2023/03/09 02:24:15;;;;;;;18.37;11.53;;;1.20;99.90;;;;;;5036908;28;20040;-80
2023/03/09 02:27:00;;;;;;;19.63;12.30;;;1.20;99.90;;;;;;5060526;28;20040;-80
2023/03/09 02:29:27;;;;;;;18.50;12.03;;;1.20;99.90;;;;;;5056941;28;20033;-81
2023/03/09 02:31:52;;;;;;;19.07;12.57;;;1.20;99.90;;;;;;5061952;28;20036;-80
2023/03/09 02:34:18;;;;;;;24.13;12.63;;;1.20;99.90;;;;;;5046525;28;20101;-79
2023/03/09 02:36:44;;;;;;;19.23;11.90;;;1.20;99.90;;;;;;5064609;28;20483;-80
2023/03/09 02:39:44;;;;;;;19.17;12.00;;;1.20;99.90;;;;;;5023650;28;20052;-80
2023/03/09 02:42:10;;;;;;;18.47;12.13;;;1.20;99.90;;;;;;5063457;28;20848;-80
2023/03/09 02:44:35;;;;;;;23.63;13.53;;;1.20;99.90;;;;;;5038752;28;20115;-79
2023/03/09 02:47:06;;;;;;;19.97;12.50;;;1.20;99.90;;;;;;5066305;28;20197;-79
2023/03/09 02:49:32;;;;;;;18.37;12.63;;;1.20;99.90;;;;;;5063335;28;20033;-81
2023/03/09 02:51:57;;;;;;;21.40;12.87;;;1.10;99.90;;;;;;5050928;28;20036;-80
2023/03/09 02:54:23;;;;;;;23.87;13.60;;;1.10;99.90;;;;;;5050585;28;20475;-80
2023/03/09 02:56:49;;;;;;;20.33;12.80;;;1.10;99.90;;;;;;5061581;28;20119;-80
2023/03/09 02:59:15;;;;;;;24.17;13.87;;;1.10;99.90;;;;;;5047501;28;20037;-79
2023/03/09 03:01:40;;;;;;;21.00;12.27;;;1.10;99.90;;;;;;5067898;28;20480;-80
2023/03/09 03:04:06;;;;;;;19.40;12.37;;;1.10;99.90;;;;;;5042698;28;20043;-80
2023/03/09 03:06:32;;;;;;;19.83;12.67;;;1.10;99.90;;;;;;5057629;28;20451;-80
2023/03/09 03:08:57;;;;;;;20.93;12.77;;;1.10;99.90;;;;;;5038017;28;20033;-80
2023/03/09 03:11:23;;;;;;;22.80;12.67;;;1.10;99.90;;;;;;5046075;28;20041;-80
2023/03/09 03:13:49;;;;;;;22.53;13.50;;;1.10;99.90;;;;;;5062999;28;20044;-79
2023/03/09 03:16:14;;;;;;;20.60;13.10;;;1.10;99.90;;;;;;5047352;28;20081;-80
2023/03/09 03:18:40;;;;;;;18.60;11.80;;;1.10;99.90;;;;;;5017526;28;20044;-79
2023/03/09 03:21:06;;;;;;;19.03;12.70;;;1.10;99.90;;;;;;5044571;28;20059;-79
2023/03/09 03:23:31;;;;;;;22.50;14.07;;;1.10;99.90;;;;;;5042004;28;20061;-79
2023/03/09 03:26:07;;;;;;;21.50;12.97;;;1.10;99.90;;;;;;5063576;28;20044;-79
2023/03/09 03:28:33;;;;;;;19.70;12.50;;;1.10;99.90;;;;;;5061816;28;20068;-81
2023/03/09 03:30:59;;;;;;;20.93;13.17;;;1.10;99.90;;;;;;5052284;28;20041;-80
2023/03/09 03:33:25;;;;;;;20.67;13.00;;;1.10;99.90;;;;;;5035501;28;20395;-80
2023/03/09 03:35:51;;;;;;;19.93;12.57;;;1.10;99.90;;;;;;5065430;28;20041;-79
2023/03/09 03:38:17;;;;;;;19.07;12.63;;;1.10;99.90;;;;;;5067865;28;20044;-80
2023/03/09 03:40:42;;;;;;;24.83;12.93;;;1.00;99.90;;;;;;5053285;28;20081;-79
2023/03/09 03:43:08;;;;;;;21.37;13.80;;;1.00;99.90;;;;;;5047283;28;20076;-79
2023/03/09 03:45:34;;;;;;;22.00;13.43;;;1.00;99.90;;;;;;5032601;28;20399;-79
2023/03/09 03:47:59;;;;;;;22.60;14.43;;;1.00;99.90;;;;;;5063926;28;20083;-79
2023/03/09 03:50:25;;;;;;;24.73;15.23;;;1.00;99.90;;;;;;5045670;28;20056;-80
2023/03/09 03:52:51;;;;;;;22.87;14.43;;;1.00;99.90;;;;;;5067672;28;20040;-79
2023/03/09 03:55:17;;;;;;;24.00;14.80;;;1.00;99.90;;;;;;5051646;28;20041;-80
2023/03/09 03:57:42;;;;;;;25.27;14.93;;;1.00;99.90;;;;;;5063588;28;20116;-79
2023/03/09 04:00:12;;;;;;;22.90;14.13;;;1.00;99.90;;;;;;5042489;28;20400;-80
2023/03/09 04:02:38;;;;;;;24.37;15.80;;;1.00;99.90;;;;;;5034826;28;20079;-80
2023/03/09 04:05:04;;;;;;;30.13;15.87;;;1.00;99.90;;;;;;5042986;28;20556;-80
2023/03/09 04:07:30;;;;;;;29.13;17.33;;;1.00;99.90;;;;;;5045267;28;20481;-79
2023/03/09 04:09:56;;;;;;;26.73;15.67;;;1.00;99.90;;;;;;5066272;28;20041;-79
2023/03/09 04:12:21;;;;;;;28.83;16.90;;;0.90;99.90;;;;;;5041918;28;20506;-80
2023/03/09 04:14:47;;;;;;;27.93;16.50;;;1.00;99.90;;;;;;5050538;28;20036;-79
2023/03/09 04:17:13;;;;;;;27.57;16.60;;;0.90;99.90;;;;;;5060487;28;20476;-80
2023/03/09 04:19:39;;;;;;;27.60;17.70;;;0.90;99.90;;;;;;5053902;28;20044;-79
2023/03/09 04:22:05;;;;;;;30.90;17.43;;;0.90;99.90;;;;;;5033982;28;20036;-79
2023/03/09 04:24:31;;;;;;;32.53;18.93;;;0.90;99.90;;;;;;5042190;28;20033;-79
2023/03/09 04:26:56;;;;;;;31.07;18.67;;;0.90;99.90;;;;;;5031032;28;20468;-80
2023/03/09 04:29:22;;;;;;;31.43;17.93;;;1.00;99.90;;;;;;5032500;28;20090;-79
2023/03/09 04:31:48;;;;;;;32.17;18.53;;;1.00;99.90;;;;;;5042757;28;20118;-79
2023/03/09 04:34:14;;;;;;;30.50;18.27;;;0.90;99.90;;;;;;5045628;28;20041;-81
2023/03/09 04:36:40;;;;;;;31.20;17.73;;;0.90;99.90;;;;;;5060575;28;20542;-79
2023/03/09 04:39:05;;;;;;;30.17;18.80;;;0.90;99.90;;;;;;5046111;28;20098;-81
2023/03/09 04:41:31;;;;;;;33.63;18.77;;;0.90;99.90;;;;;;5059717;28;20138;-79
2023/03/09 04:43:57;;;;;;;35.07;19.07;;;0.90;99.90;;;;;;5058897;28;20029;-79
2023/03/09 04:46:23;;;;;;;33.53;19.40;;;0.90;99.90;;;;;;5063153;28;20554;-79
2023/03/09 04:48:48;;;;;;;34.20;19.43;;;0.90;99.90;;;;;;5042132;28;20076;-79
2023/03/09 04:51:14;;;;;;;37.13;20.10;;;0.90;99.90;;;;;;5026945;28;20128;-79
2023/03/09 04:53:40;;;;;;;34.50;19.60;;;0.90;99.90;;;;;;5045532;28;20087;-80
2023/03/09 04:56:06;;;;;;;35.67;20.17;;;0.90;99.90;;;;;;5065959;28;20044;-79
2023/03/09 04:58:32;;;;;;;34.40;19.87;;;0.90;99.90;;;;;;5044491;28;20033;-79
2023/03/09 05:00:58;;;;;;;35.47;19.70;;;1.00;99.90;;;;;;5058654;28;20387;-79
2023/03/09 05:03:24;;;;;;;36.33;20.33;;;0.90;99.90;;;;;;5032022;28;20045;-80
2023/03/09 05:05:49;;;;;;;37.23;19.80;;;0.90;99.90;;;;;;5048363;28;20075;-80
2023/03/09 05:08:15;;;;;;;33.93;18.17;;;0.90;99.90;;;;;;5047674;28;20036;-80
2023/03/09 05:10:41;;;;;;;38.80;20.97;;;0.90;99.90;;;;;;5045881;28;20117;-79
2023/03/09 05:13:06;;;;;;;37.13;19.73;;;0.90;99.90;;;;;;5044506;28;20041;-79
2023/03/09 05:15:32;;;;;;;35.57;19.47;;;0.90;99.90;;;;;;5044917;28;20048;-79
2023/03/09 05:17:58;;;;;;;34.47;19.97;;;0.90;99.90;;;;;;5029420;28;20044;-79
2023/03/09 05:20:23;;;;;;;38.63;21.20;;;0.80;99.90;;;;;;5060644;28;20376;-80
2023/03/09 05:22:49;;;;;;;38.33;22.07;;;0.80;99.90;;;;;;5037562;28;20037;-80
2023/03/09 05:25:16;;;;;;;38.07;20.17;;;0.80;99.90;;;;;;5066551;28;20076;-80
2023/03/09 05:27:41;;;;;;;37.83;19.17;;;0.80;99.90;;;;;;5049179;28;20166;-79
2023/03/09 05:30:08;;;;;;;35.33;19.80;;;0.80;99.90;;;;;;5035006;28;20076;-80
2023/03/09 05:32:33;;;;;;;36.77;20.23;;;0.80;99.90;;;;;;5049027;28;20116;-80
2023/03/09 05:34:59;;;;;;;37.97;21.53;;;0.80;99.90;;;;;;5038960;28;20614;-80
2023/03/09 05:37:25;;;;;;;37.47;21.17;;;0.70;99.90;;;;;;5042731;28;20416;-80
2023/03/09 05:39:50;;;;;;;37.43;20.93;;;0.80;99.90;;;;;;5059653;28;20032;-80
2023/03/09 05:42:16;;;;;;;36.60;22.03;;;0.70;99.90;;;;;;5036125;28;20076;-80
2023/03/09 05:44:42;;;;;;;36.10;20.40;;;0.70;99.90;;;;;;5047260;28;20033;-80
2023/03/09 05:47:08;;;;;;;41.00;21.63;;;0.70;99.90;;;;;;5055572;28;20544;-79
2023/03/09 05:49:33;;;;;;;41.10;21.63;;;0.70;99.90;;;;;;5039155;28;20163;-79
2023/03/09 05:51:59;;;;;;;36.23;20.27;;;0.70;99.90;;;;;;5046339;28;20033;-79
2023/03/09 05:54:25;;;;;;;36.87;20.97;;;0.70;99.90;;;;;;5054419;28;20052;-79
2023/03/09 05:56:54;;;;;;;36.20;20.27;;;0.70;99.90;;;;;;5040783;28;20056;-80
2023/03/09 05:59:20;;;;;;;36.73;20.73;;;0.80;99.90;;;;;;5056874;28;20116;-80
2023/03/09 06:01:46;;;;;;;34.90;19.90;;;0.80;99.90;;;;;;5043733;28;20032;-80
2023/03/09 06:04:12;;;;;;;33.67;18.40;;;0.80;99.90;;;;;;5062418;28;20201;-80
2023/03/09 06:06:37;;;;;;;34.43;19.40;;;0.80;99.90;;;;;;5059581;28;20098;-80
2023/03/09 06:09:03;;;;;;;33.23;18.53;;;0.80;99.90;;;;;;5033870;28;20123;-80
2023/03/09 06:11:29;;;;;;;32.77;18.87;;;0.80;99.90;;;;;;5045796;28;20037;-80
2023/03/09 06:13:55;;;;;;;30.13;17.37;;;0.80;99.90;;;;;;5059185;28;20044;-80
2023/03/09 06:16:21;;;;;;;38.07;18.90;;;0.90;99.90;;;;;;5044268;28;20522;-80
2023/03/09 06:18:47;;;;;;;30.53;18.27;;;0.90;99.90;;;;;;5021846;28;20119;-80
2023/03/09 06:21:13;;;;;;;29.93;17.73;;;0.90;99.90;;;;;;5044632;28;20047;-80
2023/03/09 06:23:39;;;;;;;31.50;17.83;;;0.90;99.90;;;;;;5046881;28;20392;-80
2023/03/09 06:26:08;;;;;;;34.93;18.77;;;0.90;99.90;;;;;;5023149;28;20127;-80
2023/03/09 06:28:34;;;;;;;34.23;18.67;;;0.90;99.90;;;;;;5047098;28;20033;-80
2023/03/09 06:31:04;;;;;;;33.77;19.03;;;0.90;99.90;;;;;;5042945;28;20071;-80
2023/03/09 06:33:30;;;;;;;32.30;17.63;;;0.90;99.90;;;;;;5047748;28;20051;-80
2023/03/09 06:35:56;;;;;;;32.40;18.47;;;1.00;99.90;;;;;;5032321;28;20036;-80
2023/03/09 06:38:23;;;;;;;30.97;18.00;;;1.00;99.90;;;;;;5047237;28;20090;-80
2023/03/09 06:40:53;;;;;;;29.83;17.23;;;1.00;99.90;;;;;;5046078;28;20094;-80
2023/03/09 06:43:18;;;;;;;29.43;16.83;;;1.00;99.90;;;;;;5057706;28;20044;-80
2023/03/09 06:45:45;;;;;;;31.10;18.17;;;1.00;99.90;;;;;;5057319;28;20060;-79
2023/03/09 06:48:11;;;;;;;32.07;17.93;;;1.00;99.90;;;;;;5055071;28;20106;-79
2023/03/09 06:50:37;;;;;;;34.27;18.27;;;1.10;99.90;;;;;;5035663;28;20037;-79
2023/03/09 06:53:03;;;;;;;30.57;17.50;;;1.10;99.90;;;;;;5038048;28;20047;-80
2023/03/09 06:55:28;;;;;;;30.80;17.37;;;1.10;99.90;;;;;;5041837;28;20037;-79
2023/03/09 06:57:54;;;;;;;29.57;17.60;;;1.10;99.90;;;;;;5056409;28;20094;-79
2023/03/09 07:00:20;;;;;;;32.27;17.97;;;1.10;99.90;;;;;;5056331;28;20614;-79
2023/03/09 07:02:46;;;;;;;28.00;16.97;;;1.10;99.90;;;;;;5063296;28;20060;-79
2023/03/09 07:05:12;;;;;;;28.00;16.50;;;1.20;99.90;;;;;;5026560;28;20069;-79
2023/03/09 07:07:39;;;;;;;27.73;17.70;;;1.20;99.90;;;;;;5039754;28;20040;-79
2023/03/09 07:10:05;;;;;;;32.17;18.67;;;1.20;99.90;;;;;;5028726;28;20083;-79
2023/03/09 07:12:31;;;;;;;28.70;18.47;;;1.20;99.90;;;;;;5056548;28;20422;-79
2023/03/09 07:14:57;;;;;;;30.27;17.53;;;1.30;99.90;;;;;;5041708;28;20036;-79
2023/03/09 07:17:22;;;;;;;28.63;17.70;;;1.30;99.90;;;;;;5061270;28;20067;-79
2023/03/09 07:19:48;;;;;;;28.90;17.53;;;1.30;99.90;;;;;;5060396;28;20056;-79
2023/03/09 07:22:14;;;;;;;27.70;17.23;;;1.40;99.90;;;;;;5039768;28;20048;-79
2023/03/09 07:24:40;;;;;;;30.40;17.67;;;1.40;99.90;;;;;;5022773;28;20032;-79
2023/03/09 07:27:07;;;;;;;28.97;17.80;;;1.50;99.90;;;;;;5019433;28;20095;-79
2023/03/09 07:29:33;;;;;;;28.57;17.43;;;1.40;99.90;;;;;;5036517;28;20109;-79
2023/03/09 07:32:04;;;;;;;28.40;17.10;;;1.50;99.90;;;;;;5037725;28;20049;-79
2023/03/09 07:34:32;;;;;;;25.70;16.20;;;1.50;99.90;;;;;;5035070;28;20049;-79
2023/03/09 07:36:57;;;;;;;27.60;17.40;;;1.50;99.90;;;;;;5034711;28;20098;-79
2023/03/09 07:39:23;;;;;;;28.27;17.80;;;1.50;99.90;;;;;;5035550;28;20036;-80
2023/03/09 07:41:49;;;;;;;28.57;17.57;;;1.50;99.90;;;;;;5054714;28;20029;-79
2023/03/09 07:44:15;;;;;;;29.50;17.33;;;1.50;99.90;;;;;;5052050;28;20041;-80
2023/03/09 07:46:40;;;;;;;30.30;17.90;;;1.40;99.90;;;;;;5027660;28;20490;-80
2023/03/09 07:49:06;;;;;;;29.03;17.73;;;1.50;99.90;;;;;;5033392;28;20037;-80
2023/03/09 07:51:32;;;;;;;30.67;18.33;;;1.40;99.90;;;;;;5020468;28;20037;-79
2023/03/09 07:53:58;;;;;;;31.60;18.50;;;1.40;99.90;;;;;;5055032;28;20028;-79
2023/03/09 07:56:24;;;;;;;29.83;17.90;;;1.50;99.90;;;;;;5040232;28;20051;-80
2023/03/09 07:58:52;;;;;;;28.27;18.03;;;1.60;99.90;;;;;;5033762;28;20045;-80
2023/03/09 08:01:19;;;;;;;30.90;17.60;;;1.70;99.90;;;;;;5038142;28;20388;-80
2023/03/09 08:03:46;;;;;;;29.90;16.97;;;1.80;99.90;;;;;;5049535;28;20045;-79
2023/03/09 08:06:12;;;;;;;29.00;18.23;;;1.90;99.90;;;;;;5033686;28;20127;-80
2023/03/09 08:08:39;;;;;;;31.83;18.50;;;2.00;99.90;;;;;;5038578;28;20049;-80
2023/03/09 08:11:06;;;;;;;29.87;18.47;;;2.00;99.90;;;;;;5051168;28;20044;-80
2023/03/09 08:13:32;;;;;;;30.50;19.00;;;1.90;99.90;;;;;;5037264;28;20907;-80
2023/03/09 08:16:01;;;;;;;31.77;19.10;;;2.00;99.90;;;;;;5052877;28;20492;-80
2023/03/09 08:18:28;;;;;;;30.47;18.13;;;2.00;99.90;;;;;;5054864;28;20059;-80
2023/03/09 08:20:54;;;;;;;29.37;18.20;;;2.00;99.90;;;;;;5031782;28;20045;-80
2023/03/09 08:23:19;;;;;;;30.80;19.50;;;2.10;99.90;;;;;;5052007;28;20075;-80
2023/03/09 08:25:53;;;;;;;31.13;18.60;;;2.10;99.90;;;;;;5035889;28;20131;-81
2023/03/09 08:28:19;;;;;;;31.63;19.90;;;2.10;99.90;;;;;;5048753;28;20040;-80
2023/03/09 08:30:45;;;;;;;28.93;18.53;;;2.10;99.90;;;;;;5045395;28;20128;-80
2023/03/09 08:33:11;;;;;;;28.17;18.83;;;2.10;99.90;;;;;;5006154;28;20580;-80
2023/03/09 08:35:37;;;;;;;29.60;19.83;;;2.20;99.90;;;;;;5025055;28;20118;-80
2023/03/09 08:38:03;;;;;;;30.80;20.13;;;2.20;99.90;;;;;;5038691;28;20507;-80
2023/03/09 08:40:29;;;;;;;29.30;19.20;;;2.20;99.90;;;;;;5022494;28;20056;-80
2023/03/09 08:42:54;;;;;;;32.57;20.20;;;2.30;99.90;;;;;;5053156;28;20125;-80
2023/03/09 08:45:20;;;;;;;33.17;19.07;;;2.30;99.90;;;;;;5035835;28;20057;-80
2023/03/09 08:47:46;;;;;;;31.87;18.93;;;2.30;99.90;;;;;;5027044;28;20404;-80
2023/03/09 08:50:13;;;;;;;29.80;18.37;;;2.30;99.90;;;;;;5052621;28;20119;-80
2023/03/09 08:52:40;;;;;;;27.93;17.80;;;2.30;99.90;;;;;;5052938;28;20495;-80
2023/03/09 08:55:08;;;;;;;31.23;19.07;;;2.30;99.90;;;;;;5050627;28;20044;-80
2023/03/09 08:57:34;;;;;;;27.57;18.10;;;2.30;99.90;;;;;;5023106;28;20040;-81
2023/03/09 09:00:00;;;;;;;31.33;18.63;;;2.40;99.90;;;;;;5036584;28;20515;-81
2023/03/09 09:02:26;;;;;;;27.67;18.33;;;2.50;99.90;;;;;;5038147;28;20194;-81
2023/03/09 09:04:51;;;;;;;29.70;18.87;;;2.50;99.90;;;;;;5054724;28;20110;-81
2023/03/09 09:07:18;;;;;;;28.70;18.67;;;2.50;99.90;;;;;;5035635;28;20049;-81
2023/03/09 09:09:44;;;;;;;28.60;18.20;;;2.50;99.90;;;;;;5035672;28;20082;-81
2023/03/09 09:12:10;;;;;;;27.10;17.93;;;2.60;99.90;;;;;;5021764;28;20047;-80
2023/03/09 09:14:40;;;;;;;28.83;19.00;;;2.60;99.90;;;;;;5060833;28;20494;-81
2023/03/09 09:17:09;;;;;;;28.70;18.10;;;2.60;99.90;;;;;;5034584;28;20039;-81
2023/03/09 09:19:35;;;;;;;24.93;17.10;;;2.60;99.90;;;;;;5035255;28;20043;-81
2023/03/09 09:22:03;;;;;;;26.37;16.87;;;2.60;99.90;;;;;;5038673;28;20037;-81
2023/03/09 09:24:36;;;;;;;29.73;18.07;;;2.60;99.90;;;;;;5023043;28;20029;-81
2023/03/09 09:27:06;;;;;;;25.67;17.73;;;2.60;99.90;;;;;;5035956;28;20052;-81
2023/03/09 09:29:35;;;;;;;29.07;17.33;;;2.60;99.90;;;;;;5042185;28;20157;-81
2023/03/09 09:32:03;;;;;;;26.80;17.97;;;2.60;99.90;;;;;;5036210;28;20742;-80
2023/03/09 09:34:33;;;;;;;28.00;17.47;;;2.60;99.90;;;;;;5053565;28;20041;-81
2023/03/09 09:37:02;;;;;;;26.50;17.10;;;2.60;99.90;;;;;;5019971;28;20037;-81
2023/03/09 09:39:29;;;;;;;27.90;17.23;;;2.60;99.90;;;;;;5018147;28;20442;-81
2023/03/09 09:42:00;;;;;;;29.63;18.70;;;2.60;99.90;;;;;;5035648;28;21027;-81
2023/03/09 09:44:32;;;;;;;25.20;16.87;;;2.60;99.90;;;;;;5042209;28;20108;-81
2023/03/09 09:47:01;;;;;;;25.87;17.00;;;2.60;99.90;;;;;;5052393;28;21264;-80
2023/03/09 09:49:29;;;;;;;25.30;16.90;;;2.70;99.90;;;;;;5054307;28;20090;-81
2023/03/09 09:52:17;;;;;;;25.53;16.20;;;2.70;99.90;;;;;;5054971;28;20754;-81
2023/03/09 09:55:03;;;;;;;25.13;16.27;;;2.70;99.90;;;;;;5039897;28;20566;-81
2023/03/09 09:57:41;;;;;;;27.80;16.93;;;2.70;99.90;;;;;;5036095;28;20045;-80
2023/03/09 10:00:28;;;;;;;24.83;16.60;;;2.70;99.90;;;;;;5038558;28;20037;-81
2023/03/09 10:03:19;;;;;;;27.03;17.40;;;2.70;99.90;;;;;;5052239;28;20048;-80
2023/03/09 10:05:45;;;;;;;24.67;16.05;;;2.80;99.90;;;;;;5035013;28;20040;-81
2023/03/09 10:08:32;;;;;;;28.03;17.07;;;2.80;99.90;;;;;;5049609;28;20055;-80
2023/03/09 10:11:15;;;;;;;22.47;15.80;;;2.80;99.90;;;;;;5037792;28;20048;-80
2023/03/09 10:13:45;;;;;;;25.07;16.53;;;2.80;99.90;;;;;;5038029;28;20060;-80
2023/03/09 10:16:23;;;;;;;23.80;15.87;;;2.90;99.90;;;;;;5048054;28;20040;-80
2023/03/09 10:19:16;;;;;;;26.37;17.70;;;3.00;99.90;;;;;;5051438;28;20033;-80
2023/03/09 10:21:55;;;;;;;26.37;16.47;;;3.10;99.90;;;;;;5049211;28;20040;-81
2023/03/09 10:24:24;;;;;;;24.93;16.27;;;3.20;99.90;;;;;;5029812;28;20060;-81
2023/03/09 10:27:17;;;;;;;26.03;16.37;;;3.30;99.90;;;;;;5034044;28;20309;-80
2023/03/09 10:30:02;;;;;;;26.37;15.97;;;3.30;99.90;;;;;;5035005;28;20040;-80
2023/03/09 10:32:53;;;;;;;24.97;16.27;;;3.20;99.90;;;;;;5031639;28;20040;-80
2023/03/09 10:35:36;;;;;;;22.90;15.30;;;3.30;99.90;;;;;;5051633;28;20048;-80
2023/03/09 10:38:01;;;;;;;22.83;16.23;;;3.40;99.90;;;;;;5048799;28;20044;-81
2023/03/09 10:40:36;;;;;;;25.67;16.10;;;3.40;99.90;;;;;;5035916;28;20037;-80
2023/03/09 10:43:04;;;;;;;22.37;15.10;;;3.50;99.90;;;;;;5046776;28;20159;-80
2023/03/09 10:45:33;;;;;;;23.50;15.50;;;3.50;99.90;;;;;;5032440;28;20057;-80
2023/03/09 10:48:03;;;;;;;24.53;15.80;;;3.50;99.90;;;;;;5047950;28;20048;-81
2023/03/09 10:50:35;;;;;;;23.80;16.13;;;3.60;99.90;;;;;;5035342;28;20043;-80
2023/03/09 10:53:37;;;;;;;26.17;16.35;;;3.60;99.90;;;;;;5048615;28;20320;-81
2023/03/09 10:56:15;;;;;;;25.65;16.35;;;3.60;99.90;;;;;;5052086;28;20047;-81
2023/03/09 10:58:40;;;;;;;22.93;15.67;;;3.50;99.90;;;;;;5033101;28;20193;-80
2023/03/09 11:01:15;;;;;;;21.67;14.53;;;3.50;99.90;;;;;;5032775;28;20116;-80
2023/03/09 11:03:43;;;;;;;23.20;15.30;;;3.40;99.90;;;;;;5052133;28;20076;-80
2023/03/09 11:06:22;;;;;;;23.00;15.50;;;3.40;99.90;;;;;;5031929;28;20040;-80
2023/03/09 11:09:04;;;;;;;23.00;15.93;;;3.40;99.90;;;;;;5035086;28;20523;-80
2023/03/09 11:11:30;;;;;;;24.75;16.25;;;3.40;99.90;;;;;;5032438;28;20500;-80
2023/03/09 11:13:56;;;;;;;23.13;14.87;;;3.40;99.90;;;;;;5049415;28;20051;-80
2023/03/09 11:16:28;;;;;;;26.20;16.10;;;3.40;99.90;;;;;;5057285;28;20059;-80
2023/03/09 11:19:23;;;;;;;22.38;15.27;;;3.40;99.90;;;;;;5039488;28;20498;-81
2023/03/09 11:22:01;;;;;;;25.50;16.20;;;3.50;99.90;;;;;;5027803;28;20106;-81
2023/03/09 11:24:39;;;;;;;22.90;15.43;;;3.60;99.90;;;;;;5039295;28;20075;-80
2023/03/09 11:27:25;;;;;;;21.10;14.97;;;3.60;99.90;;;;;;5048032;28;20454;-80
2023/03/09 11:30:15;;;;;;;21.30;14.40;;;3.70;99.90;;;;;;5048837;28;20040;-80
2023/03/09 11:32:41;;;;;;;24.13;15.30;;;3.80;99.90;;;;;;5034197;28;20053;-80
2023/03/09 11:35:15;;;;;;;22.23;14.93;;;3.90;99.90;;;;;;5048939;28;20115;-80
2023/03/09 11:37:47;;;;;;;24.40;15.70;;;3.90;99.90;;;;;;5036746;28;20079;-80
2023/03/09 11:40:21;;;;;;;22.20;15.45;;;3.90;99.90;;;;;;5051571;28;20036;-81
2023/03/09 11:43:00;;;;;;;23.90;16.10;;;4.00;99.90;;;;;;5048234;28;20097;-80
2023/03/09 11:45:29;;;;;;;24.10;15.20;;;4.00;99.90;;;;;;5054722;28;20075;-80
2023/03/09 11:47:58;;;;;;;26.27;16.07;;;4.00;99.90;;;;;;5047554;28;20040;-80
2023/03/09 11:50:26;;;;;;;23.60;16.33;;;3.90;99.90;;;;;;5037812;28;20425;-80
2023/03/09 11:53:14;;;;;;;27.87;17.00;;;3.90;99.90;;;;;;5039291;28;20188;-80
2023/03/09 11:55:47;;;;;;;23.83;15.60;;;4.00;99.90;;;;;;5051296;28;20049;-81
2023/03/09 11:58:22;;;;;;;23.90;16.00;;;4.00;99.90;;;;;;5053215;28;20352;-79
2023/03/09 12:00:55;;;;;;;23.13;16.03;;;4.00;99.90;;;;;;5049589;28;20033;-80
2023/03/09 12:03:21;;;;;;;25.90;16.27;;;4.00;99.90;;;;;;5054663;28;20752;-80
2023/03/09 12:05:50;;;;;;;23.70;15.53;;;4.00;99.90;;;;;;5056704;28;20443;-80
2023/03/09 12:08:31;;;;;;;21.93;14.80;;;4.10;99.90;;;;;;5049305;28;20041;-79
2023/03/09 12:11:05;;;;;;;24.93;16.67;;;4.10;99.90;;;;;;5051802;28;20091;-79
2023/03/09 12:13:51;;;;;;;25.17;15.87;;;4.10;99.90;;;;;;5050917;28;20041;-80
2023/03/09 12:16:51;;;;;;;24.70;15.80;;;4.00;99.90;;;;;;5060749;28;20138;-80
2023/03/09 12:19:20;;;;;;;24.17;15.63;;;4.00;99.90;;;;;;5019445;28;20185;-80
2023/03/09 12:22:05;;;;;;;23.03;15.03;;;3.90;99.90;;;;;;5042358;28;20139;-80
2023/03/09 12:24:38;;;;;;;22.90;15.63;;;3.90;99.90;;;;;;5053103;28;20480;-80
2023/03/09 12:27:18;;;;;;;25.13;16.30;;;3.90;99.90;;;;;;5054554;28;20039;-79
2023/03/09 12:29:51;;;;;;;23.97;14.90;;;3.90;99.90;;;;;;5048661;28;20516;-80
2023/03/09 12:32:16;;;;;;;22.83;15.77;;;3.90;99.90;;;;;;5040212;28;20049;-80
2023/03/09 12:34:44;;;;;;;23.43;15.80;;;3.90;99.90;;;;;;5033296;28;20056;-80
2023/03/09 12:37:28;;;;;;;24.00;15.37;;;3.90;99.90;;;;;;5037901;28;20036;-80
2023/03/09 12:39:59;;;;;;;23.50;15.53;;;3.90;99.90;;;;;;5038349;28;20052;-80
2023/03/09 12:42:29;;;;;;;24.33;15.87;;;4.00;99.90;;;;;;5034458;28;20039;-80
2023/03/09 12:44:59;;;;;;;23.47;15.47;;;4.00;99.90;;;;;;5049537;28;20061;-79